Time,TemperatureF,DewpointF,PressureIn,WindDirection,WindDirectionDegrees,WindSpeedMPH,WindSpeedGustMPH,Humidity,HourlyPrecipIn,Conditions,Clouds,dailyrainin,SoftwareType,DateUTC
2013-09-02 07:46:00,72.0,69.5,29.56,West,270,0.0,1.0,92,0.00,,,0.00,VWS V14.00,2013-09-02 11:46:00,
2013-09-02 07:47:00,72.0,69.5,29.56,South,180,0.0,1.0,92,0.00,,,0.00,VWS V14.00,2013-09-02 11:47:00,
2013-09-02 07:52:00,72.0,69.2,29.56,West,270,0.0,1.0,91,0.00,,,0.00,VWS V14.00,2013-09-02 11:52:00,
2013-09-02 07:57:00,72.0,68.9,29.56,West,270,0.0,1.0,90,0.00,,,0.00,VWS V14.00,2013-09-02 11:57:00,
2013-09-02 08:02:00,72.0,68.6,29.56,SW,225,0.0,1.0,89,0.00,,,0.00,VWS V14.00,2013-09-02 12:02:00,
2013-09-02 08:07:00,72.0,67.9,29.56,North,0,0.0,1.0,87,0.00,,,0.00,VWS V14.00,2013-09-02 12:07:00,
2013-09-02 08:12:00,72.0,67.9,29.56,WSW,248,0.0,1.0,87,0.00,,,0.00,VWS V14.00,2013-09-02 12:12:00,
2013-09-02 08:17:00,72.0,67.9,29.56,WSW,248,0.0,1.0,87,0.00,,,0.00,VWS V14.00,2013-09-02 12:17:00,
2013-09-02 08:22:00,71.8,67.7,29.56,South,180,0.0,1.0,87,0.00,,,0.00,VWS V14.00,2013-09-02 12:22:00,
2013-09-02 08:27:00,71.8,68.0,29.56,South,180,0.0,1.0,88,0.00,,,0.00,VWS V14.00,2013-09-02 12:27:00,
2013-09-02 08:32:00,71.8,68.0,29.56,WSW,248,0.0,1.0,88,0.00,,,0.00,VWS V14.00,2013-09-02 12:32:00,
2013-09-02 08:37:00,72.0,68.2,29.56,SW,225,0.0,1.0,88,0.00,,,0.00,VWS V14.00,2013-09-02 12:37:00,
2013-09-02 08:42:00,72.0,68.2,29.56,SW,225,0.0,1.0,88,0.00,,,0.00,VWS V14.00,2013-09-02 12:42:00,
2013-09-02 08:47:00,72.1,68.4,29.56,SW,225,0.0,1.0,88,0.00,,,0.00,VWS V14.00,2013-09-02 12:47:00,
2013-09-02 08:52:00,72.1,68.4,29.56,WSW,248,0.0,1.0,88,0.00,,,0.00,VWS V14.00,2013-09-02 12:52:00,
2013-09-02 08:57:00,72.1,68.4,29.56,West,270,0.0,1.0,88,0.00,,,0.00,VWS V14.00,2013-09-02 12:57:00,
2013-09-02 09:02:00,72.1,68.4,29.56,SSW,202,0.0,1.0,88,0.00,,,0.00,VWS V14.00,2013-09-02 13:02:00,
2013-09-02 09:07:00,72.1,68.4,29.56,WSW,248,0.0,1.0,88,0.00,,,0.00,VWS V14.00,2013-09-02 13:07:00,
2013-09-02 09:12:00,72.0,68.2,29.56,WSW,248,0.0,1.0,88,0.00,,,0.00,VWS V14.00,2013-09-02 13:12:00,
2013-09-02 09:17:00,72.0,68.2,29.56,WSW,248,0.0,1.0,88,0.00,,,0.00,VWS V14.00,2013-09-02 13:17:00,
2013-09-02 09:22:00,72.1,68.4,29.56,WSW,248,0.0,1.0,88,0.00,,,0.00,VWS V14.00,2013-09-02 13:22:00,
2013-09-02 09:27:00,72.1,68.4,29.56,SE,135,0.0,1.0,88,0.00,,,0.00,VWS V14.00,2013-09-02 13:27:00,
2013-09-02 09:32:00,72.1,68.4,29.56,SW,225,0.0,1.0,88,0.00,,,0.00,VWS V14.00,2013-09-02 13:32:00,
2013-09-02 09:37:00,72.5,69.1,29.56,WSW,248,0.0,1.0,89,0.00,,,0.00,VWS V14.00,2013-09-02 13:37:00,
2013-09-02 09:42:00,72.7,69.3,29.56,WSW,248,0.0,1.0,89,0.00,,,0.00,VWS V14.00,2013-09-02 13:42:00,
2013-09-02 09:47:00,72.7,68.9,29.56,South,180,0.0,1.0,88,0.00,,,0.00,VWS V14.00,2013-09-02 13:47:00,
2013-09-02 09:52:00,72.7,68.9,29.56,West,270,0.0,1.0,88,0.00,,,0.00,VWS V14.00,2013-09-02 13:52:00,
2013-09-02 09:57:00,72.9,69.1,29.56,WSW,248,0.0,1.0,88,0.00,,,0.00,VWS V14.00,2013-09-02 13:57:00,
2013-09-02 10:02:00,72.9,69.1,29.56,WSW,248,0.0,1.0,88,0.00,,,0.00,VWS V14.00,2013-09-02 14:02:00,
2013-09-02 10:07:00,73.0,69.3,29.56,WSW,248,0.0,1.0,88,0.00,,,0.00,VWS V14.00,2013-09-02 14:07:00,
2013-09-02 10:12:00,73.0,69.3,29.56,WSW,248,0.0,1.0,88,0.00,,,0.00,VWS V14.00,2013-09-02 14:12:00,
2013-09-02 10:17:00,73.0,69.3,29.56,West,270,0.0,1.0,88,0.00,,,0.00,VWS V14.00,2013-09-02 14:17:00,
2013-09-02 10:22:00,73.0,69.3,29.56,WSW,248,0.0,1.0,88,0.00,,,0.00,VWS V14.00,2013-09-02 14:22:00,
2013-09-02 10:27:00,73.0,69.3,29.56,WSW,248,0.0,1.0,88,0.00,,,0.00,VWS V14.00,2013-09-02 14:27:00,
2013-09-02 10:32:00,73.0,69.3,29.56,SW,225,0.0,1.0,88,0.00,,,0.00,VWS V14.00,2013-09-02 14:32:00,
2013-09-02 10:37:00,73.0,69.3,29.56,WSW,248,0.0,1.0,88,0.00,,,0.00,VWS V14.00,2013-09-02 14:37:00,
2013-09-02 10:42:00,73.2,69.5,29.56,WNW,292,0.0,1.0,88,0.00,,,0.00,VWS V14.00,2013-09-02 14:42:00,
2013-09-02 10:47:00,73.2,69.8,29.56,West,270,0.0,1.0,89,0.00,,,0.00,VWS V14.00,2013-09-02 14:47:00,
2013-09-02 10:52:00,73.2,69.8,29.56,WSW,248,0.0,1.0,89,0.00,,,0.00,VWS V14.00,2013-09-02 14:52:00,
2013-09-02 10:57:00,73.4,70.0,29.56,WSW,248,0.0,1.0,89,0.00,,,0.00,VWS V14.00,2013-09-02 14:57:00,
2013-09-02 11:02:00,73.6,70.1,29.56,SW,225,0.0,1.0,89,0.00,,,0.00,VWS V14.00,2013-09-02 15:02:00,
2013-09-02 11:07:00,73.6,70.1,29.56,WSW,248,0.0,1.0,89,0.00,,,0.00,VWS V14.00,2013-09-02 15:07:00,
2013-09-02 11:12:00,73.6,70.1,29.56,WSW,248,0.0,1.0,89,0.00,,,0.00,VWS V14.00,2013-09-02 15:12:00,
2013-09-02 11:17:00,73.6,70.1,29.56,WSW,248,0.0,1.0,89,0.00,,,0.00,VWS V14.00,2013-09-02 15:17:00,
2013-09-02 11:22:00,73.4,70.0,29.56,NNE,22,0.0,1.0,89,0.00,,,0.00,VWS V14.00,2013-09-02 15:22:00,
2013-09-02 11:27:00,73.4,69.6,29.56,ESE,112,0.0,1.0,88,0.00,,,0.00,VWS V14.00,2013-09-02 15:27:00,
2013-09-02 11:32:00,73.2,69.5,29.56,ESE,112,0.0,1.0,88,0.00,,,0.00,VWS V14.00,2013-09-02 15:32:00,
2013-09-02 11:37:00,73.4,69.6,29.56,WSW,248,0.0,1.0,88,0.00,,,0.00,VWS V14.00,2013-09-02 15:37:00,
2013-09-02 11:42:00,73.2,69.5,29.56,WNW,292,0.0,1.0,88,0.00,,,0.00,VWS V14.00,2013-09-02 15:42:00,
2013-09-02 11:47:00,73.4,69.6,29.56,ESE,112,0.0,1.0,88,0.00,,,0.00,VWS V14.00,2013-09-02 15:47:00,
2013-09-02 11:52:00,73.6,69.8,29.56,North,0,0.0,1.0,88,0.00,,,0.00,VWS V14.00,2013-09-02 15:52:00,
2013-09-02 11:57:00,73.8,70.0,29.56,NNW,338,0.0,1.0,88,0.00,,,0.00,VWS V14.00,2013-09-02 15:57:00,
2013-09-02 12:02:00,74.1,70.3,29.56,NNW,338,0.0,1.0,88,0.00,,,0.00,VWS V14.00,2013-09-02 16:02:00,
2013-09-02 12:07:00,74.5,70.7,29.56,NNE,22,0.0,1.0,88,0.00,,,0.00,VWS V14.00,2013-09-02 16:07:00,
2013-09-02 12:12:00,74.8,71.4,29.53,North,0,0.0,1.0,89,0.00,,,0.00,VWS V14.00,2013-09-02 16:12:00,
2013-09-02 12:17:00,75.2,71.4,29.53,WSW,248,0.0,1.0,88,0.00,,,0.00,VWS V14.00,2013-09-02 16:17:00,
2013-09-02 12:22:00,75.2,71.1,29.53,NW,315,0.0,1.0,87,0.00,,,0.00,VWS V14.00,2013-09-02 16:22:00,
2013-09-02 12:27:00,75.4,71.2,29.53,North,0,0.0,1.0,87,0.00,,,0.00,VWS V14.00,2013-09-02 16:27:00,
2013-09-02 12:31:00,75.6,71.4,29.53,WSW,248,0.0,1.0,87,0.00,,,0.00,VWS V14.00,2013-09-02 16:31:00,
2013-09-02 12:36:00,75.4,70.9,29.53,WNW,292,0.0,1.0,86,0.00,,,0.00,VWS V14.00,2013-09-02 16:36:00,
2013-09-02 12:41:00,75.4,70.9,29.53,North,0,0.0,1.0,86,0.00,,,0.00,VWS V14.00,2013-09-02 16:41:00,
2013-09-02 12:46:00,75.4,70.9,29.53,North,0,0.0,1.0,86,0.00,,,0.00,VWS V14.00,2013-09-02 16:46:00,
2013-09-02 12:51:00,75.0,70.6,29.53,North,0,0.0,1.0,86,0.00,,,0.00,VWS V14.00,2013-09-02 16:51:00,
2013-09-02 12:56:00,75.4,70.9,29.53,SE,135,0.0,1.0,86,0.00,,,0.00,VWS V14.00,2013-09-02 16:56:00,
2013-09-02 13:01:00,75.6,71.1,29.53,WNW,292,0.0,1.0,86,0.00,,,0.00,VWS V14.00,2013-09-02 17:01:00,
2013-09-02 13:06:00,75.4,70.6,29.53,NNW,338,0.0,1.0,85,0.00,,,0.00,VWS V14.00,2013-09-02 17:06:00,
2013-09-02 13:11:00,75.6,71.1,29.53,SW,225,0.0,1.0,86,0.00,,,0.00,VWS V14.00,2013-09-02 17:11:00,
2013-09-02 13:16:00,75.7,71.3,29.53,SW,225,0.0,1.0,86,0.00,,,0.00,VWS V14.00,2013-09-02 17:16:00,
2013-09-02 13:21:00,75.9,71.4,29.53,WSW,248,0.0,1.0,86,0.00,,,0.00,VWS V14.00,2013-09-02 17:21:00,
2013-09-02 13:26:00,75.9,71.4,29.50,North,0,0.0,1.0,86,0.00,,,0.00,VWS V14.00,2013-09-02 17:26:00,
2013-09-02 13:31:00,75.9,71.1,29.50,NW,315,0.0,1.0,85,0.00,,,0.00,VWS V14.00,2013-09-02 17:31:00,
2013-09-02 13:36:00,75.9,71.1,29.50,NNE,22,0.0,1.0,85,0.00,,,0.00,VWS V14.00,2013-09-02 17:36:00,
2013-09-02 13:41:00,75.7,70.9,29.50,WSW,248,0.0,1.0,85,0.00,,,0.00,VWS V14.00,2013-09-02 17:41:00,
2013-09-02 13:46:00,75.9,70.7,29.50,WNW,292,0.0,1.0,84,0.00,,,0.00,VWS V14.00,2013-09-02 17:46:00,
2013-09-02 13:51:00,75.9,71.1,29.50,NNE,22,0.0,1.0,85,0.00,,,0.00,VWS V14.00,2013-09-02 17:51:00,
2013-09-02 13:56:00,75.7,70.6,29.50,NW,315,0.0,1.0,84,0.00,,,0.00,VWS V14.00,2013-09-02 17:56:00,
2013-09-02 14:01:00,75.6,70.0,29.50,NE,45,0.0,1.0,83,0.00,,,0.00,VWS V14.00,2013-09-02 18:01:00,
2013-09-02 14:06:00,75.2,70.4,29.50,WSW,248,0.0,1.0,85,0.00,,,0.00,VWS V14.00,2013-09-02 18:06:00,
2013-09-02 14:11:00,75.0,70.6,29.50,SW,225,0.0,1.0,86,0.00,,,0.00,VWS V14.00,2013-09-02 18:11:00,
2013-09-02 14:16:00,74.8,70.7,29.50,SW,225,0.0,1.0,87,0.00,,,0.00,VWS V14.00,2013-09-02 18:16:00,
2013-09-02 14:21:00,75.2,71.4,29.50,WNW,292,0.0,1.0,88,0.00,,,0.00,VWS V14.00,2013-09-02 18:21:00,
2013-09-02 14:26:00,75.7,72.3,29.50,North,0,0.0,1.0,89,0.00,,,0.00,VWS V14.00,2013-09-02 18:26:00,
2013-09-02 14:31:00,76.3,72.8,29.50,SSW,202,0.0,1.0,89,0.00,,,0.00,VWS V14.00,2013-09-02 18:31:00,
2013-09-02 14:36:00,76.5,73.3,29.50,WSW,248,0.0,1.0,90,0.00,,,0.00,VWS V14.00,2013-09-02 18:36:00,
2013-09-02 14:41:00,76.8,73.0,29.50,SW,225,0.0,1.0,88,0.00,,,0.00,VWS V14.00,2013-09-02 18:41:00,
2013-09-02 14:46:00,76.8,72.7,29.50,WNW,292,0.0,1.0,87,0.00,,,0.00,VWS V14.00,2013-09-02 18:46:00,
2013-09-02 14:51:00,77.0,72.2,29.50,WSW,248,0.0,1.0,85,0.00,,,0.00,VWS V14.00,2013-09-02 18:51:00,
2013-09-02 14:56:00,77.0,72.5,29.47,WSW,248,0.0,1.0,86,0.00,,,0.00,VWS V14.00,2013-09-02 18:56:00,
2013-09-02 15:01:00,77.0,72.8,29.47,NW,315,0.0,1.0,87,0.00,,,0.00,VWS V14.00,2013-09-02 19:01:00,
2013-09-02 15:06:00,77.2,72.7,29.47,WSW,248,0.0,1.0,86,0.00,,,0.00,VWS V14.00,2013-09-02 19:06:00,
2013-09-02 15:11:00,77.4,72.8,29.47,NW,315,0.0,1.0,86,0.00,,,0.00,VWS V14.00,2013-09-02 19:11:00,
2013-09-02 15:16:00,77.5,73.0,29.47,WSW,248,0.0,1.0,86,0.00,,,0.00,VWS V14.00,2013-09-02 19:16:00,
2013-09-02 15:21:00,77.5,73.0,29.47,SW,225,0.0,1.0,86,0.00,,,0.00,VWS V14.00,2013-09-02 19:21:00,
2013-09-02 15:26:00,77.9,73.4,29.47,SW,225,0.0,1.0,86,0.00,,,0.00,VWS V14.00,2013-09-02 19:26:00,
2013-09-02 15:31:00,78.1,73.2,29.47,West,270,0.0,1.0,85,0.00,,,0.00,VWS V14.00,2013-09-02 19:31:00,
2013-09-02 15:36:00,78.1,73.2,29.47,WNW,292,0.0,1.0,85,0.00,,,0.00,VWS V14.00,2013-09-02 19:36:00,
2013-09-02 15:41:00,78.1,72.9,29.47,NW,315,0.0,1.0,84,0.00,,,0.00,VWS V14.00,2013-09-02 19:41:00,
2013-09-02 15:46:00,78.1,72.9,29.47,SW,225,0.0,1.0,84,0.00,,,0.00,VWS V14.00,2013-09-02 19:46:00,
2013-09-02 15:51:00,78.1,72.9,29.47,WSW,248,0.0,1.0,84,0.00,,,0.00,VWS V14.00,2013-09-02 19:51:00,
2013-09-02 15:56:00,78.1,72.5,29.47,WSW,248,0.0,1.0,83,0.00,,,0.00,VWS V14.00,2013-09-02 19:56:00,
2013-09-02 16:01:00,78.1,72.1,29.47,WSW,248,0.0,1.0,82,0.00,,,0.00,VWS V14.00,2013-09-02 20:01:00,
2013-09-02 16:06:00,78.1,71.8,29.47,NW,315,0.0,1.0,81,0.00,,,0.00,VWS V14.00,2013-09-02 20:06:00,
2013-09-02 16:11:00,77.9,72.3,29.47,SE,135,0.0,1.0,83,0.00,,,0.00,VWS V14.00,2013-09-02 20:11:00,
2013-09-02 16:16:00,77.9,72.0,29.47,WSW,248,0.0,1.0,82,0.00,,,0.00,VWS V14.00,2013-09-02 20:16:00,
2013-09-02 16:21:00,77.9,71.2,29.47,WSW,248,0.0,1.0,80,0.00,,,0.00,VWS V14.00,2013-09-02 20:21:00,
2013-09-02 16:26:00,77.9,71.6,29.47,WSW,248,0.0,1.0,81,0.00,,,0.00,VWS V14.00,2013-09-02 20:26:00,
2013-09-02 16:31:00,77.9,71.6,29.47,SW,225,0.0,1.0,81,0.00,,,0.00,VWS V14.00,2013-09-02 20:31:00,
2013-09-02 16:36:00,77.9,71.2,29.47,SE,135,0.0,1.0,80,0.00,,,0.00,VWS V14.00,2013-09-02 20:36:00,
2013-09-02 16:41:00,77.9,71.6,29.44,West,270,0.0,1.0,81,0.00,,,0.00,VWS V14.00,2013-09-02 20:41:00,
2013-09-02 16:46:00,78.1,71.8,29.44,WNW,292,0.0,1.0,81,0.00,,,0.00,VWS V14.00,2013-09-02 20:46:00,
2013-09-02 16:51:00,78.3,72.0,29.44,SW,225,0.0,1.0,81,0.00,,,0.00,VWS V14.00,2013-09-02 20:51:00,
2013-09-02 16:56:00,78.1,71.4,29.44,WSW,248,0.0,1.0,80,0.00,,,0.00,VWS V14.00,2013-09-02 20:56:00,
2013-09-02 17:01:00,77.9,71.2,29.44,NW,315,0.0,1.0,80,0.00,,,0.00,VWS V14.00,2013-09-02 21:01:00,
2013-09-02 17:06:00,77.7,71.1,29.44,SE,135,0.0,1.0,80,0.00,,,0.00,VWS V14.00,2013-09-02 21:06:00,
2013-09-02 17:11:00,77.7,71.1,29.44,WSW,248,0.0,1.0,80,0.00,,,0.00,VWS V14.00,2013-09-02 21:11:00,
2013-09-02 17:16:00,77.7,70.7,29.44,West,270,0.0,1.0,79,0.00,,,0.00,VWS V14.00,2013-09-02 21:16:00,
2013-09-02 17:21:00,77.7,70.3,29.44,South,180,0.0,1.0,78,0.00,,,0.00,VWS V14.00,2013-09-02 21:21:00,
2013-09-02 17:26:00,77.5,69.4,29.47,WSW,248,0.0,1.0,76,0.00,,,0.00,VWS V14.00,2013-09-02 21:26:00,
2013-09-02 17:31:00,77.5,69.8,29.47,West,270,0.0,2.6,77,0.00,,,0.00,VWS V14.00,2013-09-02 21:31:00,
2013-09-02 17:36:00,77.4,68.4,29.47,SSW,202,0.0,1.0,74,0.00,,,0.00,VWS V14.00,2013-09-02 21:36:00,
2013-09-02 17:41:00,77.2,67.9,29.44,South,180,0.0,1.0,73,0.00,,,0.00,VWS V14.00,2013-09-02 21:41:00,
2013-09-02 17:46:00,76.8,67.9,29.44,SSW,202,0.0,1.0,74,0.00,,,0.00,VWS V14.00,2013-09-02 21:46:00,
2013-09-02 17:51:00,76.8,68.7,29.44,NW,315,0.0,1.0,76,0.00,,,0.00,VWS V14.00,2013-09-02 21:51:00,
2013-09-02 17:56:00,76.6,68.5,29.44,SSE,158,0.0,1.0,76,0.00,,,0.00,VWS V14.00,2013-09-02 21:56:00,
2013-09-02 18:01:00,76.6,68.9,29.44,West,270,0.0,1.0,77,0.00,,,0.00,VWS V14.00,2013-09-02 22:01:00,
2013-09-02 18:06:00,76.5,68.7,29.44,North,0,0.0,1.0,77,0.00,,,0.00,VWS V14.00,2013-09-02 22:06:00,
2013-09-02 18:11:00,76.5,68.3,29.44,West,270,0.0,1.0,76,0.00,,,0.00,VWS V14.00,2013-09-02 22:11:00,
2013-09-02 18:16:00,76.3,68.6,29.44,WSW,248,0.0,1.0,77,0.00,,,0.00,VWS V14.00,2013-09-02 22:16:00,
2013-09-02 18:21:00,76.1,68.8,29.44,NW,315,0.0,1.0,78,0.00,,,0.00,VWS V14.00,2013-09-02 22:21:00,
2013-09-02 18:26:00,76.1,68.8,29.44,SE,135,0.0,1.0,78,0.00,,,0.00,VWS V14.00,2013-09-02 22:26:00,
2013-09-02 18:31:00,75.9,68.6,29.44,SW,225,0.0,1.0,78,0.00,,,0.00,VWS V14.00,2013-09-02 22:31:00,
2013-09-02 18:36:00,75.7,68.4,29.44,SSW,202,0.0,1.0,78,0.00,,,0.00,VWS V14.00,2013-09-02 22:36:00,
2013-09-02 18:41:00,75.7,68.4,29.44,WSW,248,0.0,1.0,78,0.00,,,0.00,VWS V14.00,2013-09-02 22:41:00,
2013-09-02 18:46:00,75.6,68.6,29.44,SW,225,0.0,1.0,79,0.00,,,0.00,VWS V14.00,2013-09-02 22:46:00,
2013-09-02 18:51:00,75.6,68.6,29.44,WSW,248,0.0,1.0,79,0.00,,,0.00,VWS V14.00,2013-09-02 22:51:00,
2013-09-02 18:56:00,75.4,68.4,29.44,SSW,202,0.0,1.0,79,0.00,,,0.00,VWS V14.00,2013-09-02 22:56:00,
2013-09-02 19:01:00,75.4,68.4,29.44,South,180,0.0,1.0,79,0.00,,,0.00,VWS V14.00,2013-09-02 23:01:00,
2013-09-02 19:06:00,75.2,68.2,29.44,West,270,0.0,1.0,79,0.00,,,0.00,VWS V14.00,2013-09-02 23:06:00,
2013-09-02 19:11:00,75.2,68.6,29.44,SW,225,0.0,1.0,80,0.00,,,0.00,VWS V14.00,2013-09-02 23:11:00,
2013-09-02 19:16:00,75.0,68.4,29.44,WNW,292,0.0,1.0,80,0.00,,,0.00,VWS V14.00,2013-09-02 23:16:00,
2013-09-02 19:21:00,75.0,68.8,29.44,WSW,248,0.0,1.0,81,0.00,,,0.00,VWS V14.00,2013-09-02 23:21:00,
2013-09-02 19:26:00,75.0,68.8,29.44,South,180,0.0,1.0,81,0.00,,,0.00,VWS V14.00,2013-09-02 23:26:00,
2013-09-02 19:31:00,74.8,68.6,29.44,SE,135,0.0,1.0,81,0.00,,,0.00,VWS V14.00,2013-09-02 23:31:00,
2013-09-02 19:36:00,74.8,68.6,29.44,SW,225,0.0,1.0,81,0.00,,,0.00,VWS V14.00,2013-09-02 23:36:00,
2013-09-02 19:41:00,74.8,69.0,29.44,SSW,202,0.0,1.0,82,0.00,,,0.00,VWS V14.00,2013-09-02 23:41:00,
2013-09-02 19:46:00,74.8,69.0,29.44,SE,135,0.0,1.0,82,0.00,,,0.00,VWS V14.00,2013-09-02 23:46:00,
2013-09-02 19:51:00,74.7,68.8,29.44,SE,135,0.0,1.0,82,0.00,,,0.00,VWS V14.00,2013-09-02 23:51:00,
2013-09-02 19:56:00,74.7,68.8,29.47,South,180,0.0,1.0,82,0.00,,,0.00,VWS V14.00,2013-09-02 23:56:00,
2013-09-02 20:01:00,74.7,68.8,29.47,ESE,112,0.0,1.0,82,0.00,,,0.00,VWS V14.00,2013-09-03 00:01:00,
2013-09-02 20:06:00,74.7,69.2,29.47,ESE,112,0.0,1.0,83,0.00,,,0.00,VWS V14.00,2013-09-03 00:06:00,
2013-09-02 20:11:00,74.7,69.2,29.44,ESE,112,0.0,1.0,83,0.00,,,0.00,VWS V14.00,2013-09-03 00:11:00,
2013-09-02 20:16:00,74.7,69.2,29.44,ESE,112,0.0,1.0,83,0.00,,,0.00,VWS V14.00,2013-09-03 00:16:00,
2013-09-02 20:21:00,74.7,69.2,29.44,WSW,248,0.0,1.0,83,0.00,,,0.00,VWS V14.00,2013-09-03 00:21:00,
2013-09-02 20:26:00,74.7,69.2,29.47,South,180,0.0,1.0,83,0.00,,,0.00,VWS V14.00,2013-09-03 00:26:00,
2013-09-02 20:31:00,74.7,69.2,29.47,West,270,0.0,1.0,83,0.00,,,0.00,VWS V14.00,2013-09-03 00:31:00,
2013-09-02 20:36:00,74.7,69.5,29.47,SSE,158,0.0,1.0,84,0.00,,,0.00,VWS V14.00,2013-09-03 00:36:00,
2013-09-02 20:41:00,74.7,69.5,29.47,SSW,202,0.0,1.0,84,0.00,,,0.00,VWS V14.00,2013-09-03 00:41:00,
2013-09-02 20:46:00,74.7,69.5,29.47,SW,225,0.0,1.0,84,0.00,,,0.00,VWS V14.00,2013-09-03 00:46:00,
2013-09-02 20:51:00,74.7,69.5,29.47,South,180,0.0,1.0,84,0.00,,,0.00,VWS V14.00,2013-09-03 00:51:00,
2013-09-02 20:56:00,74.5,69.3,29.44,WSW,248,0.0,1.0,84,0.00,,,0.00,VWS V14.00,2013-09-03 00:56:00,
2013-09-02 21:01:00,74.5,69.3,29.44,WNW,292,0.0,1.0,84,0.00,,,0.00,VWS V14.00,2013-09-03 01:01:00,
2013-09-02 21:06:00,74.1,68.6,29.44,NW,315,0.0,1.0,83,0.00,,,0.00,VWS V14.00,2013-09-03 01:06:00,
2013-09-02 21:11:00,73.9,68.8,29.47,WNW,292,0.0,1.0,84,0.00,,,0.00,VWS V14.00,2013-09-03 01:11:00,
2013-09-02 21:16:00,73.9,68.8,29.47,WNW,292,0.0,1.0,84,0.00,,,0.00,VWS V14.00,2013-09-03 01:16:00,
2013-09-02 21:21:00,73.8,68.6,29.47,WNW,292,0.0,1.0,84,0.00,,,0.00,VWS V14.00,2013-09-03 01:21:00,
2013-09-02 21:26:00,73.8,68.6,29.47,WNW,292,0.0,1.0,84,0.00,,,0.00,VWS V14.00,2013-09-03 01:26:00,
2013-09-02 21:31:00,73.6,68.4,29.47,WNW,292,0.0,1.0,84,0.00,,,0.00,VWS V14.00,2013-09-03 01:31:00,
2013-09-02 21:36:00,73.6,68.8,29.47,WNW,292,0.0,1.0,85,0.00,,,0.00,VWS V14.00,2013-09-03 01:36:00,
2013-09-02 21:41:00,73.6,68.8,29.47,WNW,292,0.0,1.0,85,0.00,,,0.00,VWS V14.00,2013-09-03 01:41:00,
2013-09-02 21:46:00,73.6,68.8,29.47,WNW,292,0.0,1.0,85,0.00,,,0.00,VWS V14.00,2013-09-03 01:46:00,
2013-09-02 21:51:00,73.6,68.8,29.47,WNW,292,0.0,1.0,85,0.00,,,0.00,VWS V14.00,2013-09-03 01:51:00,
2013-09-02 21:56:00,73.6,68.8,29.47,SSW,202,0.0,1.0,85,0.00,,,0.00,VWS V14.00,2013-09-03 01:56:00,
2013-09-02 22:01:00,73.6,68.8,29.47,SW,225,0.0,1.0,85,0.00,,,0.00,VWS V14.00,2013-09-03 02:01:00,
2013-09-02 22:06:00,73.2,68.4,29.47,NNW,338,0.0,1.0,85,0.00,,,0.00,VWS V14.00,2013-09-03 02:06:00,
2013-09-02 22:11:00,73.2,68.8,29.47,West,270,0.0,1.0,86,0.00,,,0.00,VWS V14.00,2013-09-03 02:11:00,
2013-09-02 22:16:00,73.2,68.8,29.47,WNW,292,0.0,1.0,86,0.00,,,0.00,VWS V14.00,2013-09-03 02:16:00,
2013-09-02 22:21:00,73.2,68.8,29.47,WNW,292,0.0,1.0,86,0.00,,,0.00,VWS V14.00,2013-09-03 02:21:00,
2013-09-02 22:26:00,73.2,68.8,29.47,WNW,292,0.0,1.0,86,0.00,,,0.00,VWS V14.00,2013-09-03 02:26:00,
2013-09-02 22:31:00,73.2,68.8,29.47,West,270,0.0,1.0,86,0.00,,,0.00,VWS V14.00,2013-09-03 02:31:00,
2013-09-02 22:36:00,73.2,69.1,29.47,SE,135,0.0,1.0,87,0.00,,,0.00,VWS V14.00,2013-09-03 02:36:00,
2013-09-02 22:41:00,73.4,69.3,29.47,WSW,248,0.0,1.0,87,0.00,,,0.00,VWS V14.00,2013-09-03 02:41:00,
2013-09-02 22:46:00,73.4,69.3,29.47,West,270,0.0,1.0,87,0.00,,,0.00,VWS V14.00,2013-09-03 02:46:00,
2013-09-02 22:51:00,73.6,69.8,29.47,SW,225,0.0,1.0,88,0.00,,,0.00,VWS V14.00,2013-09-03 02:51:00,
2013-09-02 22:56:00,73.6,69.5,29.47,South,180,0.0,1.0,87,0.00,,,0.00,VWS V14.00,2013-09-03 02:56:00,
2013-09-02 23:01:00,73.6,69.8,29.47,WSW,248,0.0,1.0,88,0.00,,,0.00,VWS V14.00,2013-09-03 03:01:00,
2013-09-02 23:06:00,73.6,69.8,29.47,SW,225,0.0,1.0,88,0.00,,,0.00,VWS V14.00,2013-09-03 03:06:00,
2013-09-02 23:11:00,73.8,70.0,29.44,WSW,248,0.0,1.0,88,0.00,,,0.00,VWS V14.00,2013-09-03 03:11:00,
2013-09-02 23:16:00,73.8,70.0,29.44,SW,225,0.0,1.0,88,0.00,,,0.00,VWS V14.00,2013-09-03 03:16:00,
2013-09-02 23:21:00,73.8,70.0,29.44,SSW,202,0.0,1.0,88,0.00,,,0.00,VWS V14.00,2013-09-03 03:21:00,
2013-09-02 23:26:00,73.8,70.0,29.44,SW,225,0.0,1.0,88,0.00,,,0.00,VWS V14.00,2013-09-03 03:26:00,
2013-09-02 23:31:00,73.8,70.0,29.44,NW,315,0.0,1.0,88,0.00,,,0.00,VWS V14.00,2013-09-03 03:31:00,
2013-09-02 23:36:00,73.6,69.8,29.44,West,270,0.0,1.0,88,0.00,,,0.00,VWS V14.00,2013-09-03 03:36:00,
2013-09-02 23:41:00,73.6,69.8,29.47,NW,315,0.0,1.0,88,0.00,,,0.00,VWS V14.00,2013-09-03 03:41:00,
2013-09-02 23:46:00,73.8,70.0,29.47,NW,315,0.0,1.0,88,0.00,,,0.00,VWS V14.00,2013-09-03 03:46:00,
2013-09-02 23:51:00,73.8,70.0,29.47,West,270,0.0,1.0,88,0.00,,,0.00,VWS V14.00,2013-09-03 03:51:00,
2013-09-02 23:56:00,73.8,70.0,29.47,South,180,0.0,1.0,88,0.00,,,0.00,VWS V14.00,2013-09-03 03:56:00,